Time;durP1;ratioP1;P1;durP2;ratioP2;P2;SDS_P1;SDS_P2;PMS_P1;PMS_P2;Temp;Humidity;BMP_temperature;BMP_pressure;BME280_temperature;BME280_humidity;BME280_pressure;Samples;Min_cycle;Max_cycle;Signal;HPM_P1;HPM_P2
2024/01/04 00:00:29;;;;;;;3.30;3.20;;;10.60;99.90;;;;;;4878976;29;20634;-63
2024/01/04 00:02:55;;;;;;;3.30;3.20;;;10.70;99.90;;;;;;4896962;29;20427;-60
2024/01/04 00:05:21;;;;;;;2.83;2.73;;;10.50;99.90;;;;;;4879058;29;20424;-63
2024/01/04 00:07:47;;;;;;;3.00;2.90;;;10.60;99.90;;;;;;4893564;29;20644;-62
2024/01/04 00:10:14;;;;;;;3.17;3.07;;;10.60;99.90;;;;;;4895489;29;20446;-62
2024/01/04 00:12:41;;;;;;;3.10;3.00;;;10.50;99.90;;;;;;4896335;29;20276;-62
2024/01/04 00:15:08;;;;;;;3.20;3.10;;;10.40;99.90;;;;;;4886254;29;20908;-62
2024/01/04 00:17:33;;;;;;;3.20;2.97;;;10.30;99.90;;;;;;4881138;29;20947;-62
2024/01/04 00:19:59;;;;;;;3.33;3.10;;;10.40;99.90;;;;;;4880017;29;20433;-62
2024/01/04 00:22:25;;;;;;;3.50;3.30;;;10.40;99.90;;;;;;4896252;29;20190;-62
2024/01/04 00:24:51;;;;;;;3.50;3.40;;;10.30;99.90;;;;;;4878892;29;20523;-62
2024/01/04 00:27:17;;;;;;;3.63;3.53;;;10.30;99.90;;;;;;4892946;29;20192;-63
2024/01/04 00:29:43;;;;;;;3.33;3.30;;;10.30;99.90;;;;;;4891095;29;20435;-63
2024/01/04 00:32:10;;;;;;;3.67;3.47;;;10.30;99.90;;;;;;4894637;29;20433;-62
2024/01/04 00:34:35;;;;;;;3.50;3.40;;;10.40;99.90;;;;;;4894123;29;20464;-63
2024/01/04 00:37:03;;;;;;;3.70;3.50;;;10.40;99.90;;;;;;4893654;29;20440;-62
2024/01/04 00:39:29;;;;;;;3.40;3.30;;;10.40;99.90;;;;;;4894525;29;20436;-63
2024/01/04 00:41:56;;;;;;;3.60;3.50;;;10.50;99.90;;;;;;4881422;29;20438;-62
2024/01/04 00:44:21;;;;;;;3.90;3.70;;;10.50;99.90;;;;;;4886173;29;20189;-62
2024/01/04 00:46:47;;;;;;;4.00;3.70;;;10.50;99.90;;;;;;4897062;29;20453;-62
2024/01/04 00:49:13;;;;;;;4.40;3.90;;;10.50;99.90;;;;;;4892328;29;20188;-61
2024/01/04 00:51:39;;;;;;;3.50;3.40;;;10.50;99.90;;;;;;4887039;29;20191;-62
2024/01/04 00:54:05;;;;;;;3.83;3.70;;;10.60;99.90;;;;;;4893900;29;20348;-61
2024/01/04 00:56:36;;;;;;;4.13;3.87;;;10.60;99.90;;;;;;4899223;29;20261;-62
2024/01/04 00:59:02;;;;;;;4.40;4.10;;;10.50;99.90;;;;;;4885263;29;20437;-62
2024/01/04 01:01:33;;;;;;;4.40;4.10;;;10.50;99.90;;;;;;4890168;29;20423;-62
2024/01/04 01:04:02;;;;;;;5.43;4.93;;;10.50;99.90;;;;;;4887688;29;20426;-61
2024/01/04 01:06:27;;;;;;;4.97;4.60;;;10.50;99.90;;;;;;4880674;29;20438;-62
2024/01/04 01:08:54;;;;;;;5.17;4.87;;;10.50;99.90;;;;;;4899110;29;20427;-62
2024/01/04 01:11:19;;;;;;;4.80;4.50;;;10.50;99.90;;;;;;4898814;29;20423;-61
2024/01/04 01:13:45;;;;;;;5.80;4.97;;;10.50;99.90;;;;;;4898785;29;20473;-63
2024/01/04 01:16:11;;;;;;;5.07;4.87;;;10.50;99.90;;;;;;4897938;29;20437;-63
2024/01/04 01:18:40;;;;;;;5.50;5.17;;;10.50;99.90;;;;;;4899800;29;20179;-62
2024/01/04 01:21:06;;;;;;;4.90;4.50;;;10.50;99.90;;;;;;4893661;29;20450;-62
2024/01/04 01:23:32;;;;;;;5.27;4.73;;;10.50;99.90;;;;;;4864112;29;20931;-63
2024/01/04 01:25:57;;;;;;;5.33;4.93;;;10.50;99.90;;;;;;4883205;29;20437;-59
2024/01/04 01:28:23;;;;;;;6.07;5.50;;;10.50;99.90;;;;;;4899123;29;20185;-62
2024/01/04 01:30:50;;;;;;;5.13;4.83;;;10.50;99.90;;;;;;4898077;29;20520;-63
2024/01/04 01:33:16;;;;;;;5.40;5.10;;;10.50;99.90;;;;;;4897530;29;20965;-62
2024/01/04 01:35:41;;;;;;;5.57;5.07;;;10.50;99.90;;;;;;4885866;29;20429;-62
2024/01/04 01:38:07;;;;;;;5.63;5.33;;;10.60;99.90;;;;;;4893182;29;20198;-63
2024/01/04 01:40:33;;;;;;;5.30;5.10;;;10.50;99.90;;;;;;4875440;29;20556;-62
2024/01/04 01:42:59;;;;;;;5.10;4.90;;;10.60;99.90;;;;;;4895186;29;20472;-60
2024/01/04 01:45:25;;;;;;;4.87;4.60;;;10.60;99.90;;;;;;4897825;29;20194;-62
2024/01/04 01:47:51;;;;;;;4.53;4.33;;;10.60;99.90;;;;;;4881537;29;20186;-62
2024/01/04 01:50:20;;;;;;;4.70;4.40;;;10.60;99.90;;;;;;4879771;29;20446;-62
2024/01/04 01:52:46;;;;;;;4.43;4.20;;;10.60;99.90;;;;;;4882613;29;20165;-62
2024/01/04 01:55:14;;;;;;;5.23;4.27;;;10.60;99.90;;;;;;4896655;29;20483;-62
2024/01/04 01:57:41;;;;;;;4.70;4.40;;;10.60;99.90;;;;;;4897180;29;20418;-62
2024/01/04 02:00:09;;;;;;;4.73;4.43;;;10.50;99.90;;;;;;4879510;29;20433;-62
2024/01/04 02:02:35;;;;;;;4.57;4.27;;;10.50;99.90;;;;;;4863605;29;20784;-63
2024/01/04 02:05:02;;;;;;;3.70;3.60;;;10.50;99.90;;;;;;4879392;29;20416;-62
2024/01/04 02:07:28;;;;;;;3.60;3.50;;;10.50;99.90;;;;;;4879305;29;20426;-62
2024/01/04 02:09:54;;;;;;;3.30;3.20;;;10.40;99.90;;;;;;4881065;29;20437;-63
2024/01/04 02:12:20;;;;;;;3.30;3.20;;;10.40;99.90;;;;;;4879607;29;20498;-63
2024/01/04 02:14:48;;;;;;;3.33;3.23;;;10.30;99.90;;;;;;4879722;29;20947;-62
2024/01/04 02:17:13;;;;;;;3.37;3.27;;;10.40;99.90;;;;;;4889357;29;20537;-60
2024/01/04 02:19:40;;;;;;;3.70;3.50;;;10.40;99.90;;;;;;4866280;29;20435;-62
2024/01/04 02:22:05;;;;;;;3.63;3.53;;;10.30;99.90;;;;;;4897744;29;20557;-62
2024/01/04 02:24:31;;;;;;;3.40;3.30;;;10.30;99.90;;;;;;4896242;29;20446;-62
2024/01/04 02:26:57;;;;;;;3.50;3.40;;;10.30;99.90;;;;;;4898543;29;20182;-63
2024/01/04 02:29:23;;;;;;;3.80;3.60;;;10.20;99.90;;;;;;4897327;29;20265;-61
2024/01/04 02:31:49;;;;;;;3.50;3.40;;;10.30;99.90;;;;;;4897045;29;20190;-62
2024/01/04 02:34:15;;;;;;;3.57;3.47;;;10.30;99.90;;;;;;4897614;29;20242;-62
2024/01/04 02:36:41;;;;;;;3.93;3.63;;;10.30;99.90;;;;;;4898320;29;20809;-62
2024/01/04 02:39:09;;;;;;;4.07;3.97;;;10.30;99.90;;;;;;4897659;29;20191;-62
2024/01/04 02:41:34;;;;;;;4.37;4.17;;;10.30;99.90;;;;;;4898310;29;20609;-62
2024/01/04 02:44:00;;;;;;;4.57;4.30;;;10.30;99.90;;;;;;4890753;29;20458;-59
2024/01/04 02:46:26;;;;;;;4.80;4.50;;;10.30;99.90;;;;;;4879003;29;20181;-62
2024/01/04 02:48:52;;;;;;;4.87;4.53;;;10.30;99.90;;;;;;4891082;29;20934;-63
2024/01/04 02:51:18;;;;;;;5.17;4.93;;;10.30;99.90;;;;;;4894988;29;20656;-62
2024/01/04 02:53:43;;;;;;;4.93;4.63;;;10.30;99.90;;;;;;4897848;29;20462;-62
2024/01/04 02:56:09;;;;;;;5.43;5.13;;;10.30;99.90;;;;;;4896795;29;20236;-62
2024/01/04 02:58:35;;;;;;;5.70;5.30;;;10.30;99.90;;;;;;4896036;29;20215;-62
2024/01/04 03:01:01;;;;;;;5.17;4.87;;;10.30;99.90;;;;;;4897797;29;20182;-59
2024/01/04 03:03:27;;;;;;;6.00;5.70;;;10.30;99.90;;;;;;4897370;29;20906;-62
2024/01/04 03:05:54;;;;;;;6.60;5.63;;;10.40;99.90;;;;;;4896176;29;20433;-62
2024/01/04 03:08:19;;;;;;;5.93;5.60;;;10.40;99.90;;;;;;4880233;29;20431;-62
2024/01/04 03:10:45;;;;;;;5.93;5.63;;;10.40;99.90;;;;;;4896060;29;20788;-62
2024/01/04 03:13:11;;;;;;;6.40;6.00;;;10.40;99.90;;;;;;4896886;29;20907;-62
2024/01/04 03:15:37;;;;;;;6.03;5.63;;;10.40;99.90;;;;;;4897695;29;20619;-62
2024/01/04 03:18:03;;;;;;;6.00;5.60;;;10.30;99.90;;;;;;4889828;29;20181;-60
2024/01/04 03:20:28;;;;;;;6.77;6.33;;;10.40;99.90;;;;;;4878693;29;20176;-62
2024/01/04 03:22:54;;;;;;;5.73;5.43;;;10.40;99.90;;;;;;4879162;29;20554;-62
2024/01/04 03:25:20;;;;;;;6.30;5.70;;;10.40;99.90;;;;;;4892139;29;20194;-62
2024/01/04 03:27:45;;;;;;;7.37;6.07;;;10.40;99.90;;;;;;4897375;29;20186;-63
2024/01/04 03:30:12;;;;;;;5.93;5.63;;;10.40;99.90;;;;;;4892823;29;20186;-61
2024/01/04 03:32:37;;;;;;;6.20;5.90;;;10.40;99.90;;;;;;4861936;29;20222;-62
2024/01/04 03:35:08;;;;;;;6.33;5.87;;;10.40;99.90;;;;;;4897189;29;20473;-59
2024/01/04 03:37:34;;;;;;;6.03;5.53;;;10.40;99.90;;;;;;4897555;29;20170;-62
2024/01/04 03:39:59;;;;;;;6.33;5.93;;;10.40;99.90;;;;;;4888847;29;20426;-62
2024/01/04 03:42:25;;;;;;;5.70;5.40;;;10.40;99.90;;;;;;4877640;29;20406;-62
2024/01/04 03:44:51;;;;;;;6.03;5.53;;;10.40;99.90;;;;;;4890666;29;20551;-62
2024/01/04 03:47:17;;;;;;;5.93;5.63;;;10.40;99.90;;;;;;4879731;29;20577;-62
2024/01/04 03:49:43;;;;;;;5.83;5.43;;;10.40;99.90;;;;;;4895600;29;20179;-62
2024/01/04 03:52:08;;;;;;;5.80;5.40;;;10.50;99.90;;;;;;4880336;29;20439;-61
2024/01/04 03:54:34;;;;;;;4.87;4.67;;;10.40;99.90;;;;;;4884097;29;20217;-62
2024/01/04 03:57:00;;;;;;;4.97;4.67;;;10.50;99.90;;;;;;4897011;29;20163;-62
2024/01/04 03:59:26;;;;;;;4.63;4.43;;;10.50;99.90;;;;;;4894408;29;20209;-62
2024/01/04 04:01:51;;;;;;;4.07;3.87;;;10.60;99.90;;;;;;4897187;29;20183;-63
2024/01/04 04:04:17;;;;;;;4.57;4.33;;;10.60;99.90;;;;;;4865287;29;20188;-62
2024/01/04 04:06:43;;;;;;;4.00;3.80;;;10.60;99.90;;;;;;4878193;29;20211;-62
2024/01/04 04:09:08;;;;;;;4.10;3.90;;;10.60;99.90;;;;;;4861175;29;20213;-59
2024/01/04 04:11:35;;;;;;;3.83;3.63;;;10.70;99.90;;;;;;4890899;29;20237;-62
2024/01/04 04:14:01;;;;;;;3.67;3.50;;;10.70;99.90;;;;;;4864725;29;20576;-62
2024/01/04 04:16:27;;;;;;;4.10;3.80;;;10.70;99.90;;;;;;4896251;29;20697;-62
2024/01/04 04:18:53;;;;;;;3.70;3.60;;;10.60;99.90;;;;;;4888442;29;20919;-62
2024/01/04 04:21:20;;;;;;;4.13;3.93;;;10.60;99.90;;;;;;4877608;29;20647;-62
2024/01/04 04:23:49;;;;;;;3.93;3.63;;;10.50;99.90;;;;;;4878312;29;20526;-61
2024/01/04 04:26:22;;;;;;;4.70;3.83;;;10.50;99.90;;;;;;4895550;29;20826;-62
2024/01/04 04:28:48;;;;;;;3.60;3.50;;;10.60;99.90;;;;;;4895134;29;20514;-64
2024/01/04 04:31:14;;;;;;;3.40;3.30;;;10.50;99.90;;;;;;4895357;29;20432;-62
2024/01/04 04:33:40;;;;;;;3.93;3.63;;;10.50;99.90;;;;;;4896720;29;20479;-62
2024/01/04 04:36:07;;;;;;;3.80;3.60;;;10.40;99.90;;;;;;4882357;29;20971;-60
2024/01/04 04:38:34;;;;;;;3.87;3.77;;;10.40;99.90;;;;;;4882451;29;20409;-62
2024/01/04 04:41:01;;;;;;;3.97;3.77;;;10.40;99.90;;;;;;4882618;29;20512;-63
2024/01/04 04:43:27;;;;;;;3.50;3.37;;;10.40;99.90;;;;;;4866695;29;20775;-62
2024/01/04 04:45:54;;;;;;;4.00;3.90;;;10.30;99.90;;;;;;4899936;29;20440;-63
2024/01/04 04:48:20;;;;;;;2.90;2.70;;;10.40;99.90;;;;;;4898777;29;20193;-62
2024/01/04 04:50:45;;;;;;;5.40;5.10;;;10.40;99.90;;;;;;4895842;29;20436;-62
2024/01/04 04:53:11;;;;;;;5.13;4.93;;;10.40;99.90;;;;;;4899501;29;20209;-59
2024/01/04 04:55:37;;;;;;;2.33;2.23;;;10.40;99.90;;;;;;4899705;29;20689;-62
2024/01/04 04:58:03;;;;;;;4.70;4.50;;;10.40;99.90;;;;;;4898807;29;20639;-62
2024/01/04 05:00:28;;;;;;;3.13;3.00;;;10.30;99.90;;;;;;4880886;29;20783;-62
2024/01/04 05:02:54;;;;;;;4.83;4.67;;;10.40;99.90;;;;;;4899678;29;20458;-62
2024/01/04 05:05:20;;;;;;;5.07;4.87;;;10.40;99.90;;;;;;4899401;29;20303;-61
2024/01/04 05:07:45;;;;;;;3.80;3.70;;;10.50;99.90;;;;;;4899977;29;20267;-62
2024/01/04 05:10:11;;;;;;;2.40;2.30;;;10.40;99.90;;;;;;4897743;29;20183;-60
2024/01/04 05:12:37;;;;;;;3.57;3.27;;;10.40;99.90;;;;;;4898805;29;20207;-61
2024/01/04 05:15:04;;;;;;;5.40;5.20;;;10.40;99.90;;;;;;4895498;29;20283;-61
2024/01/04 05:17:30;;;;;;;2.73;2.63;;;10.40;99.90;;;;;;4872723;29;21151;-61
2024/01/04 05:19:55;;;;;;;2.90;2.80;;;10.30;99.90;;;;;;4899772;29;20457;-62
2024/01/04 05:22:21;;;;;;;3.10;2.90;;;10.30;99.90;;;;;;4885456;29;20271;-61
2024/01/04 05:24:47;;;;;;;3.10;3.00;;;10.30;99.90;;;;;;4883621;29;20262;-62
2024/01/04 05:27:12;;;;;;;3.23;3.13;;;10.30;99.90;;;;;;4899160;29;20197;-59
2024/01/04 05:29:38;;;;;;;3.77;3.60;;;10.20;99.90;;;;;;4896447;29;20185;-61
2024/01/04 05:32:04;;;;;;;4.07;3.97;;;10.20;99.90;;;;;;4890869;29;20174;-62
2024/01/04 05:34:32;;;;;;;3.53;3.33;;;10.20;99.90;;;;;;4898844;29;20272;-62
2024/01/04 05:37:00;;;;;;;3.67;3.47;;;10.10;99.90;;;;;;4881943;29;20196;-62
2024/01/04 05:39:26;;;;;;;5.07;4.87;;;10.20;99.90;;;;;;4893921;29;20437;-62
2024/01/04 05:41:52;;;;;;;3.50;3.30;;;10.20;99.90;;;;;;4896210;29;20441;-62
2024/01/04 05:44:18;;;;;;;3.33;3.10;;;10.30;99.90;;;;;;4889077;29;20202;-61
2024/01/04 05:46:44;;;;;;;3.90;3.60;;;10.30;99.90;;;;;;4889529;29;20988;-61
2024/01/04 05:49:10;;;;;;;4.00;3.80;;;10.30;99.90;;;;;;4885528;29;20925;-62
2024/01/04 05:51:36;;;;;;;2.80;2.67;;;10.20;99.90;;;;;;4879883;29;20184;-62
2024/01/04 05:54:05;;;;;;;2.73;2.60;;;10.20;99.90;;;;;;4880345;29;20982;-62
2024/01/04 05:56:30;;;;;;;2.10;2.00;;;10.20;99.90;;;;;;4889959;29;20316;-62
2024/01/04 05:58:56;;;;;;;3.33;3.23;;;10.10;99.90;;;;;;4898227;29;20457;-61
2024/01/04 06:01:22;;;;;;;3.33;3.23;;;10.10;99.90;;;;;;4889502;29;20176;-62
2024/01/04 06:03:48;;;;;;;3.10;3.00;;;10.10;99.90;;;;;;4892577;29;20195;-63
2024/01/04 06:06:17;;;;;;;3.00;2.90;;;10.10;99.90;;;;;;4883785;29;20263;-59
2024/01/04 06:08:43;;;;;;;3.30;3.20;;;10.00;99.90;;;;;;4880213;29;20216;-62
2024/01/04 06:11:12;;;;;;;3.30;3.00;;;10.00;99.90;;;;;;4881161;29;20467;-62
2024/01/04 06:13:38;;;;;;;2.63;2.53;;;9.90;99.90;;;;;;4883847;29;20218;-61
2024/01/04 06:16:07;;;;;;;2.70;2.50;;;9.90;99.90;;;;;;4887859;29;20913;-62
2024/01/04 06:18:36;;;;;;;2.30;2.30;;;9.90;99.90;;;;;;4894123;29;20191;-62
2024/01/04 06:21:03;;;;;;;2.40;2.30;;;9.90;99.90;;;;;;4864809;29;20422;-62
2024/01/04 06:23:29;;;;;;;2.50;2.40;;;9.90;99.90;;;;;;4883695;29;20472;-61
2024/01/04 06:25:55;;;;;;;2.70;2.50;;;10.00;99.90;;;;;;4880619;29;20442;-62
2024/01/04 06:28:22;;;;;;;2.83;2.73;;;10.00;99.90;;;;;;4881008;29;20446;-62
2024/01/04 06:30:48;;;;;;;2.40;2.30;;;10.10;99.90;;;;;;4896014;29;20789;-63
2024/01/04 06:33:14;;;;;;;2.00;2.00;;;10.00;99.90;;;;;;4884381;29;20425;-59
2024/01/04 06:35:40;;;;;;;3.17;2.40;;;10.10;99.90;;;;;;4863547;29;20179;-63
2024/01/04 06:38:08;;;;;;;1.90;1.90;;;10.10;99.90;;;;;;4880042;29;20492;-62
2024/01/04 06:40:37;;;;;;;3.60;3.40;;;10.10;99.90;;;;;;4880410;29;20809;-63
2024/01/04 06:43:08;;;;;;;2.93;2.83;;;10.00;99.90;;;;;;4886306;29;20512;-64
2024/01/04 06:45:37;;;;;;;2.33;2.23;;;10.00;99.90;;;;;;4879452;29;20580;-62
2024/01/04 06:48:08;;;;;;;4.50;4.30;;;10.00;99.90;;;;;;4875753;29;21044;-65
2024/01/04 06:50:34;;;;;;;2.80;2.70;;;10.00;99.90;;;;;;4863595;29;20774;-65
2024/01/04 06:52:59;;;;;;;4.13;3.93;;;10.10;99.90;;;;;;4879573;29;20393;-65
2024/01/04 06:55:25;;;;;;;3.70;3.60;;;10.10;99.90;;;;;;4868906;29;20268;-65
2024/01/04 06:57:51;;;;;;;2.83;2.63;;;10.10;99.90;;;;;;4890667;29;20184;-66
2024/01/04 07:00:17;;;;;;;2.60;2.40;;;10.10;99.90;;;;;;4890079;29;20567;-63
2024/01/04 07:02:42;;;;;;;4.70;4.50;;;10.10;99.90;;;;;;4890094;29;20528;-65
2024/01/04 07:05:11;;;;;;;3.80;3.20;;;10.10;99.90;;;;;;4887627;29;20438;-65
2024/01/04 07:07:37;;;;;;;3.80;3.60;;;10.00;99.90;;;;;;4889949;29;20228;-68
2024/01/04 07:10:04;;;;;;;3.50;3.30;;;10.00;99.90;;;;;;4896635;29;20426;-65
2024/01/04 07:12:29;;;;;;;3.67;3.47;;;10.10;99.90;;;;;;4892387;29;20423;-65
2024/01/04 07:14:55;;;;;;;4.97;4.70;;;10.10;99.90;;;;;;4879466;29;20466;-65
2024/01/04 07:17:23;;;;;;;3.80;3.70;;;10.10;99.90;;;;;;4878842;29;20241;-65
2024/01/04 07:19:49;;;;;;;3.20;3.10;;;10.10;99.90;;;;;;4879832;29;20182;-66
2024/01/04 07:22:17;;;;;;;3.70;3.50;;;10.10;99.90;;;;;;4879481;29;20429;-66
2024/01/04 07:24:43;;;;;;;4.77;4.57;;;10.20;99.90;;;;;;4882260;29;20508;-65
2024/01/04 07:27:10;;;;;;;4.50;4.20;;;10.20;99.90;;;;;;4878896;29;20410;-66
2024/01/04 07:29:37;;;;;;;5.73;5.33;;;10.30;99.90;;;;;;4883583;29;20504;-66
2024/01/04 07:32:03;;;;;;;5.27;4.97;;;10.30;99.90;;;;;;4882817;29;20434;-67
2024/01/04 07:34:33;;;;;;;5.53;5.10;;;10.30;99.90;;;;;;4893391;29;20462;-67
2024/01/04 07:36:59;;;;;;;4.70;4.40;;;10.30;99.90;;;;;;4897273;29;20416;-67
2024/01/04 07:39:26;;;;;;;6.00;5.70;;;10.40;99.90;;;;;;4903184;29;20440;-65
2024/01/04 07:41:51;;;;;;;5.50;5.10;;;10.40;99.90;;;;;;4904393;29;20589;-65
2024/01/04 07:44:17;;;;;;;6.53;6.13;;;10.50;99.90;;;;;;4900026;29;20501;-67
2024/01/04 07:46:43;;;;;;;6.30;5.80;;;10.50;99.90;;;;;;4897873;29;20182;-66
2024/01/04 07:49:09;;;;;;;5.87;5.37;;;10.60;99.90;;;;;;4880772;29;20419;-66
2024/01/04 07:51:35;;;;;;;5.67;5.17;;;10.60;99.90;;;;;;4895873;29;20185;-65
2024/01/04 07:54:00;;;;;;;6.20;5.73;;;10.50;99.90;;;;;;4904250;29;20254;-65
2024/01/04 07:56:26;;;;;;;5.60;5.20;;;10.50;99.90;;;;;;4891859;29;20312;-64
2024/01/04 07:58:53;;;;;;;5.10;4.80;;;10.50;99.90;;;;;;4879328;29;20286;-65
2024/01/04 08:01:19;;;;;;;7.00;6.60;;;10.50;99.90;;;;;;4892889;29;20266;-60
2024/01/04 08:03:44;;;;;;;5.83;5.43;;;10.40;99.90;;;;;;4896544;29;20557;-64
2024/01/04 08:06:10;;;;;;;5.83;5.43;;;10.40;99.90;;;;;;4876029;29;20946;-65
2024/01/04 08:08:36;;;;;;;6.90;6.50;;;10.40;99.90;;;;;;4896044;29;20190;-64
2024/01/04 08:11:02;;;;;;;5.97;5.47;;;10.50;99.90;;;;;;4899913;29;20187;-64
2024/01/04 08:13:28;;;;;;;5.57;5.17;;;10.50;99.90;;;;;;4899819;29;20249;-65
2024/01/04 08:15:54;;;;;;;5.77;5.30;;;10.40;99.90;;;;;;4884312;29;20418;-66
2024/01/04 08:18:21;;;;;;;6.37;5.97;;;10.40;99.90;;;;;;4883591;29;20516;-61
2024/01/04 08:20:49;;;;;;;6.17;5.77;;;10.50;99.90;;;;;;4900852;29;20428;-65
2024/01/04 08:23:15;;;;;;;6.13;5.73;;;10.50;99.90;;;;;;4901128;29;20407;-65
2024/01/04 08:25:41;;;;;;;5.93;5.53;;;10.60;99.90;;;;;;4900714;29;20416;-66
2024/01/04 08:28:09;;;;;;;6.20;5.60;;;10.60;99.90;;;;;;4901337;29;20584;-65
2024/01/04 08:30:35;;;;;;;5.40;5.10;;;10.60;99.90;;;;;;4899606;29;20704;-65
2024/01/04 08:33:01;;;;;;;6.63;6.13;;;10.60;99.90;;;;;;4900001;29;20443;-63
2024/01/04 08:35:26;;;;;;;6.93;6.37;;;10.70;99.90;;;;;;4879825;29;20518;-65
2024/01/04 08:37:52;;;;;;;6.00;5.50;;;10.70;99.90;;;;;;4898796;29;20205;-66
2024/01/04 08:40:18;;;;;;;5.63;5.13;;;10.70;99.90;;;;;;4893395;29;20244;-66
2024/01/04 08:42:44;;;;;;;6.07;5.63;;;10.70;99.90;;;;;;4898702;29;20233;-67
2024/01/04 08:45:13;;;;;;;6.07;5.77;;;10.70;99.90;;;;;;4895285;29;20439;-67
2024/01/04 08:47:40;;;;;;;6.30;5.90;;;10.70;99.90;;;;;;4890968;29;20188;-67
2024/01/04 08:50:06;;;;;;;6.10;5.60;;;10.60;99.90;;;;;;4887370;29;20430;-67
2024/01/04 08:52:33;;;;;;;6.17;5.77;;;10.70;99.90;;;;;;4889676;29;20456;-67
2024/01/04 08:54:58;;;;;;;5.50;5.20;;;10.70;99.90;;;;;;4881591;29;20476;-67
2024/01/04 08:57:24;;;;;;;6.00;5.60;;;10.60;99.90;;;;;;4879305;29;20935;-62
2024/01/04 08:59:50;;;;;;;5.10;4.80;;;10.60;99.90;;;;;;4883029;29;20211;-67
2024/01/04 09:02:17;;;;;;;5.83;5.27;;;10.50;99.90;;;;;;4899683;29;20429;-67
2024/01/04 09:04:43;;;;;;;7.80;4.70;;;10.60;99.90;;;;;;4881544;29;20551;-63
2024/01/04 09:07:09;;;;;;;10.30;9.63;;;10.70;99.90;;;;;;4890508;29;20893;-62
2024/01/04 09:09:35;;;;;;;13.03;12.43;;;11.20;99.90;;;;;;4891057;29;20437;-61
2024/01/04 09:12:01;;;;;;;9.10;8.50;;;11.80;99.90;;;;;;4896554;29;20949;-62
2024/01/04 09:14:27;;;;;;;8.77;8.30;;;12.10;99.90;;;;;;4897340;29;20460;-62
2024/01/04 09:16:53;;;;;;;8.97;8.20;;;12.50;99.90;;;;;;4899928;29;20585;-62
2024/01/04 09:19:20;;;;;;;10.10;9.40;;;12.70;99.90;;;;;;4901906;29;20187;-62
2024/01/04 09:21:50;;;;;;;18.90;13.67;;;12.90;99.90;;;;;;4898369;29;20179;-62
2024/01/04 09:24:20;;;;;;;13.00;11.10;;;13.20;99.90;;;;;;4899285;29;20942;-62
2024/01/04 09:26:46;;;;;;;10.00;9.20;;;13.40;99.90;;;;;;4894491;29;20529;-62
2024/01/04 09:29:18;;;;;;;13.30;11.87;;;13.70;99.90;;;;;;4896905;29;20794;-62
2024/01/04 09:31:44;;;;;;;4.40;4.10;;;13.90;99.90;;;;;;4889179;29;20427;-72
2024/01/04 09:34:10;;;;;;;4.33;4.13;;;13.70;99.90;;;;;;4888950;29;20485;-69
2024/01/04 09:36:35;;;;;;;4.10;3.90;;;13.50;99.90;;;;;;4886308;29;20190;-69
2024/01/04 09:39:05;;;;;;;4.03;3.57;;;13.20;99.90;;;;;;4898020;29;20217;-68
2024/01/04 09:41:32;;;;;;;4.30;4.00;;;12.90;99.90;;;;;;4889341;29;20276;-67
2024/01/04 09:44:05;;;;;;;4.23;3.93;;;12.60;99.90;;;;;;4892803;29;20483;-68
2024/01/04 09:46:38;;;;;;;4.40;4.20;;;12.40;99.90;;;;;;4887105;29;20437;-68
2024/01/04 09:49:06;;;;;;;6.90;6.40;;;12.10;99.90;;;;;;4895662;29;20445;-70
2024/01/04 09:51:42;;;;;;;5.03;4.73;;;11.90;99.90;;;;;;4897315;29;20516;-70
2024/01/04 09:54:11;;;;;;;5.80;5.40;;;11.70;99.90;;;;;;4899543;29;20530;-70
2024/01/04 09:56:47;;;;;;;6.03;5.63;;;11.70;99.90;;;;;;4897405;29;20474;-70
2024/01/04 09:59:12;;;;;;;5.10;4.70;;;11.60;99.90;;;;;;4897100;29;20457;-70
2024/01/04 10:01:39;;;;;;;5.00;4.70;;;11.50;99.90;;;;;;4881955;29;20420;-69
2024/01/04 10:04:13;;;;;;;6.23;5.83;;;11.30;99.90;;;;;;4882902;29;20455;-70
2024/01/04 10:06:40;;;;;;;4.83;4.50;;;11.30;99.90;;;;;;4898836;29;20404;-69
2024/01/04 10:09:23;;;;;;;6.73;6.20;;;11.20;99.90;;;;;;4882413;29;20477;-69
2024/01/04 10:11:58;;;;;;;7.70;6.77;;;11.10;99.90;;;;;;4898622;29;20446;-69
2024/01/04 10:14:28;;;;;;;6.40;5.83;;;11.10;99.90;;;;;;4899106;29;20454;-69
2024/01/04 10:17:04;;;;;;;6.20;5.80;;;11.00;99.90;;;;;;4899117;29;20416;-69
2024/01/04 10:19:31;;;;;;;6.73;6.13;;;11.10;99.90;;;;;;4898558;29;20403;-69
2024/01/04 10:22:04;;;;;;;6.50;6.00;;;11.00;99.90;;;;;;4899043;29;20421;-70
2024/01/04 10:24:32;;;;;;;8.50;7.03;;;11.00;99.90;;;;;;4898266;29;20813;-69
2024/01/04 10:27:00;;;;;;;8.17;7.47;;;11.00;99.90;;;;;;4899288;29;20440;-70
2024/01/04 10:29:29;;;;;;;7.37;6.60;;;11.00;99.90;;;;;;4879846;29;20440;-70
2024/01/04 10:32:00;;;;;;;7.67;7.10;;;11.00;99.90;;;;;;4898530;29;20893;-69
2024/01/04 10:34:26;;;;;;;8.13;7.53;;;10.90;99.90;;;;;;4881743;29;20482;-69
2024/01/04 10:36:52;;;;;;;6.83;6.33;;;10.90;99.90;;;;;;4881403;29;20760;-69
2024/01/04 10:39:21;;;;;;;6.73;6.23;;;11.00;99.90;;;;;;4898699;29;20421;-70
2024/01/04 10:42:02;;;;;;;6.70;6.20;;;11.00;99.90;;;;;;4896407;29;20463;-70
2024/01/04 10:44:28;;;;;;;7.20;6.70;;;11.00;99.90;;;;;;4898642;29;20872;-70
2024/01/04 10:46:59;;;;;;;5.93;5.53;;;11.00;99.90;;;;;;4879130;29;20470;-69
2024/01/04 10:49:25;;;;;;;7.90;7.30;;;11.00;99.90;;;;;;4879282;29;20442;-70
2024/01/04 10:51:57;;;;;;;5.80;5.40;;;10.90;99.90;;;;;;4881246;29;20495;-69
2024/01/04 10:54:34;;;;;;;5.80;5.60;;;10.90;99.90;;;;;;4898306;29;20479;-68
2024/01/04 10:57:01;;;;;;;5.37;5.07;;;10.90;99.90;;;;;;4898464;29;20427;-68
2024/01/04 10:59:32;;;;;;;4.20;4.00;;;10.90;99.90;;;;;;4898586;29;20428;-69
2024/01/04 11:01:58;;;;;;;5.63;5.23;;;10.90;99.90;;;;;;4898163;29;20842;-69
2024/01/04 11:04:25;;;;;;;6.03;5.53;;;10.90;99.90;;;;;;4881565;29;20775;-69
2024/01/04 11:06:52;;;;;;;5.70;5.30;;;10.90;99.90;;;;;;4897699;29;20914;-69
2024/01/04 11:09:22;;;;;;;5.53;5.20;;;10.80;99.90;;;;;;4898701;29;20471;-70
2024/01/04 11:11:51;;;;;;;6.27;5.77;;;10.80;99.90;;;;;;4897916;29;20396;-70
2024/01/04 11:14:19;;;;;;;7.23;6.70;;;10.80;99.90;;;;;;4897998;29;20457;-69
2024/01/04 11:16:53;;;;;;;6.60;6.17;;;10.80;99.90;;;;;;4897187;29;20930;-70
2024/01/04 11:19:38;;;;;;;6.80;6.20;;;10.80;99.90;;;;;;4897413;29;20453;-70
2024/01/04 11:22:27;;;;;;;7.63;7.03;;;10.80;99.90;;;;;;4897721;29;20403;-69
2024/01/04 11:25:34;;;;;;;7.43;6.93;;;10.70;99.90;;;;;;4897084;29;20415;-69
2024/01/04 11:28:03;;;;;;;7.20;6.63;;;10.80;99.90;;;;;;4897890;29;20411;-70
2024/01/04 11:30:29;;;;;;;6.20;5.70;;;10.70;99.90;;;;;;4897891;29;20471;-69
2024/01/04 11:32:56;;;;;;;6.37;5.87;;;10.80;99.90;;;;;;4880380;29;20411;-69
2024/01/04 11:35:21;;;;;;;6.20;5.70;;;10.80;99.90;;;;;;4897774;29;20456;-70
2024/01/04 11:37:51;;;;;;;5.60;5.20;;;10.90;99.90;;;;;;4897156;29;20456;-70
2024/01/04 11:40:27;;;;;;;7.00;6.47;;;10.90;99.90;;;;;;4897736;29;20502;-70
2024/01/04 11:42:53;;;;;;;6.17;5.57;;;11.00;99.90;;;;;;4897207;29;20415;-69
2024/01/04 11:45:19;;;;;;;5.97;5.37;;;11.10;99.90;;;;;;4897669;29;20810;-70
2024/01/04 11:47:47;;;;;;;5.20;4.90;;;11.10;99.90;;;;;;4880112;29;20187;-70
2024/01/04 11:50:14;;;;;;;4.87;4.60;;;11.10;99.90;;;;;;4893798;29;20828;-69
2024/01/04 11:52:39;;;;;;;5.17;4.77;;;11.10;99.90;;;;;;4896730;29;20428;-69
2024/01/04 11:55:06;;;;;;;5.60;5.07;;;11.10;99.90;;;;;;4897430;29;20875;-69
2024/01/04 11:57:32;;;;;;;7.23;4.30;;;11.10;99.90;;;;;;4880853;29;20427;-69
2024/01/04 11:59:58;;;;;;;5.03;4.83;;;11.10;99.90;;;;;;4897468;29;20430;-70
2024/01/04 12:02:24;;;;;;;4.63;4.33;;;11.10;99.90;;;;;;4880164;29;20510;-70
2024/01/04 12:04:50;;;;;;;4.97;4.27;;;11.10;99.90;;;;;;4896843;29;20246;-73
2024/01/04 12:07:17;;;;;;;5.27;4.93;;;11.10;99.90;;;;;;4897311;29;20431;-69
2024/01/04 12:09:42;;;;;;;4.93;4.50;;;11.10;99.90;;;;;;4895999;29;20500;-76
2024/01/04 12:12:08;;;;;;;4.73;4.43;;;11.10;99.90;;;;;;4897119;29;20906;-74
2024/01/04 12:14:35;;;;;;;4.30;3.90;;;11.10;99.90;;;;;;4896998;29;20220;-65
2024/01/04 12:17:01;;;;;;;4.00;3.70;;;11.10;99.90;;;;;;4896554;29;20495;-73
2024/01/04 12:19:27;;;;;;;4.17;3.87;;;11.00;99.90;;;;;;4907041;29;20428;-73
2024/01/04 12:21:53;;;;;;;5.53;4.50;;;11.00;99.90;;;;;;4903215;29;20439;-73
2024/01/04 12:24:19;;;;;;;3.80;3.57;;;11.00;99.90;;;;;;4894514;29;20217;-72
2024/01/04 12:26:45;;;;;;;4.00;3.73;;;11.00;99.90;;;;;;4904304;29;20425;-72
2024/01/04 12:29:11;;;;;;;4.00;3.70;;;11.00;99.90;;;;;;4901660;29;20432;-73
2024/01/04 12:31:40;;;;;;;4.30;3.90;;;11.00;99.90;;;;;;4904648;29;20408;-72
2024/01/04 12:34:11;;;;;;;4.10;3.90;;;11.00;99.90;;;;;;4904474;29;20958;-73
2024/01/04 12:36:37;;;;;;;3.60;3.50;;;11.00;99.90;;;;;;4897624;29;20475;-72
2024/01/04 12:39:09;;;;;;;3.87;3.53;;;10.90;99.90;;;;;;4905456;29;20467;-72
2024/01/04 12:41:37;;;;;;;3.80;3.60;;;11.00;99.90;;;;;;4902615;29;20419;-74
2024/01/04 12:44:05;;;;;;;3.80;3.57;;;10.90;99.90;;;;;;4907508;29;20422;-77